sensor_id;sensor_type;location;lat;lon;timestamp;pressure;altitude;pressure_sealevel;temperature;humidity
51297;BME280;37380;45.186;9.792;2024-02-23T00:01:11;99650.56;;;8.54;95.75
51297;BME280;37380;45.186;9.792;2024-02-23T00:03:39;99642.94;;;8.60;95.44
51297;BME280;37380;45.186;9.792;2024-02-23T00:06:06;99643.47;;;8.59;95.31
51297;BME280;37380;45.186;9.792;2024-02-23T00:08:33;99644.72;;;8.58;95.37
51297;BME280;37380;45.186;9.792;2024-02-23T00:11:00;99632.16;;;8.57;95.17
51297;BME280;37380;45.186;9.792;2024-02-23T00:13:27;99636.94;;;8.56;95.31
51297;BME280;37380;45.186;9.792;2024-02-23T00:15:54;99625.84;;;8.56;95.78
51297;BME280;37380;45.186;9.792;2024-02-23T00:18:21;99633.63;;;8.58;95.42
51297;BME280;37380;45.186;9.792;2024-02-23T00:20:48;99623.28;;;8.58;95.50
51297;BME280;37380;45.186;9.792;2024-02-23T00:23:15;99615.19;;;8.60;95.65
51297;BME280;37380;45.186;9.792;2024-02-23T00:25:42;99611.19;;;8.56;95.69
51297;BME280;37380;45.186;9.792;2024-02-23T00:28:09;99608.41;;;8.61;95.47
51297;BME280;37380;45.186;9.792;2024-02-23T00:30:36;99595.78;;;8.60;95.57
51297;BME280;37380;45.186;9.792;2024-02-23T00:33:03;99598.56;;;8.60;95.86
51297;BME280;37380;45.186;9.792;2024-02-23T00:35:30;99589.47;;;8.60;95.93
51297;BME280;37380;45.186;9.792;2024-02-23T00:37:57;99586.97;;;8.62;95.83
51297;BME280;37380;45.186;9.792;2024-02-23T00:40:25;99583.44;;;8.61;95.38
51297;BME280;37380;45.186;9.792;2024-02-23T00:42:52;99573.81;;;8.62;95.63
51297;BME280;37380;45.186;9.792;2024-02-23T00:45:19;99586.13;;;8.67;95.60
51297;BME280;37380;45.186;9.792;2024-02-23T00:47:46;99571.53;;;8.66;95.36
51297;BME280;37380;45.186;9.792;2024-02-23T00:50:14;99571.00;;;8.68;95.11
51297;BME280;37380;45.186;9.792;2024-02-23T00:52:41;99562.16;;;8.69;95.26
51297;BME280;37380;45.186;9.792;2024-02-23T00:55:08;99554.09;;;8.71;94.43
51297;BME280;37380;45.186;9.792;2024-02-23T00:57:35;99547.25;;;8.72;94.52
51297;BME280;37380;45.186;9.792;2024-02-23T01:00:04;99547.72;;;8.76;94.52
51297;BME280;37380;45.186;9.792;2024-02-23T01:02:33;99547.97;;;8.78;94.11
51297;BME280;37380;45.186;9.792;2024-02-23T01:05:01;99542.13;;;8.82;94.41
51297;BME280;37380;45.186;9.792;2024-02-23T01:07:29;99526.50;;;8.79;93.73
51297;BME280;37380;45.186;9.792;2024-02-23T01:09:59;99536.56;;;8.82;94.21
51297;BME280;37380;45.186;9.792;2024-02-23T01:12:26;99526.97;;;8.83;93.80
51297;BME280;37380;45.186;9.792;2024-02-23T01:14:53;99512.13;;;8.80;94.15
51297;BME280;37380;45.186;9.792;2024-02-23T01:17:20;99519.63;;;8.86;93.75
51297;BME280;37380;45.186;9.792;2024-02-23T01:19:48;99513.31;;;8.85;93.43
51297;BME280;37380;45.186;9.792;2024-02-23T01:22:15;99505.97;;;8.88;93.68
51297;BME280;37380;45.186;9.792;2024-02-23T01:24:42;99519.88;;;8.88;93.09
51297;BME280;37380;45.186;9.792;2024-02-23T01:27:08;99515.28;;;8.90;92.85
51297;BME280;37380;45.186;9.792;2024-02-23T01:29:35;99516.06;;;8.91;93.75
51297;BME280;37380;45.186;9.792;2024-02-23T01:32:03;99497.88;;;8.90;93.24
51297;BME280;37380;45.186;9.792;2024-02-23T01:34:30;99508.22;;;8.89;93.26
51297;BME280;37380;45.186;9.792;2024-02-23T01:36:56;99496.84;;;8.93;92.95
51297;BME280;37380;45.186;9.792;2024-02-23T01:39:23;99474.63;;;8.93;93.31
51297;BME280;37380;45.186;9.792;2024-02-23T01:41:50;99477.34;;;8.98;92.82
51297;BME280;37380;45.186;9.792;2024-02-23T01:44:17;99475.09;;;8.97;92.33
51297;BME280;37380;45.186;9.792;2024-02-23T01:46:45;99459.69;;;8.96;92.37
51297;BME280;37380;45.186;9.792;2024-02-23T01:49:12;99442.81;;;8.94;92.76
51297;BME280;37380;45.186;9.792;2024-02-23T01:51:39;99433.16;;;9.00;92.19
51297;BME280;37380;45.186;9.792;2024-02-23T01:54:07;99436.66;;;9.01;92.11
51297;BME280;37380;45.186;9.792;2024-02-23T01:56:36;99430.97;;;8.93;92.05
51297;BME280;37380;45.186;9.792;2024-02-23T01:59:04;99417.59;;;8.92;92.62
51297;BME280;37380;45.186;9.792;2024-02-23T02:01:31;99404.16;;;8.96;92.63
51297;BME280;37380;45.186;9.792;2024-02-23T02:03:58;99407.19;;;8.98;92.52
51297;BME280;37380;45.186;9.792;2024-02-23T02:06:26;99400.66;;;8.95;92.74
51297;BME280;37380;45.186;9.792;2024-02-23T02:08:54;99394.56;;;8.97;91.98
51297;BME280;37380;45.186;9.792;2024-02-23T02:11:21;99382.66;;;9.02;92.04
51297;BME280;37380;45.186;9.792;2024-02-23T02:13:48;99369.59;;;8.97;92.20
51297;BME280;37380;45.186;9.792;2024-02-23T02:16:15;99358.94;;;9.01;92.08
51297;BME280;37380;45.186;9.792;2024-02-23T02:18:43;99359.47;;;8.99;92.18
51297;BME280;37380;45.186;9.792;2024-02-23T02:21:11;99349.78;;;9.06;91.50
51297;BME280;37380;45.186;9.792;2024-02-23T02:23:38;99356.84;;;9.07;91.39
51297;BME280;37380;45.186;9.792;2024-02-23T02:26:05;99353.84;;;9.05;91.41
51297;BME280;37380;45.186;9.792;2024-02-23T02:28:32;99341.22;;;9.04;91.78
51297;BME280;37380;45.186;9.792;2024-02-23T02:31:00;99332.31;;;9.11;91.08
51297;BME280;37380;45.186;9.792;2024-02-23T02:33:28;99331.31;;;9.08;91.08
51297;BME280;37380;45.186;9.792;2024-02-23T02:35:55;99328.47;;;9.14;90.80
51297;BME280;37380;45.186;9.792;2024-02-23T02:38:22;99336.81;;;9.14;90.69
51297;BME280;37380;45.186;9.792;2024-02-23T02:40:49;99324.66;;;9.17;90.44
51297;BME280;37380;45.186;9.792;2024-02-23T02:43:16;99335.84;;;9.11;90.96
51297;BME280;37380;45.186;9.792;2024-02-23T02:45:43;99329.97;;;9.15;90.71
51297;BME280;37380;45.186;9.792;2024-02-23T02:48:10;99318.13;;;9.14;90.48
51297;BME280;37380;45.186;9.792;2024-02-23T02:50:38;99307.03;;;9.14;90.65
51297;BME280;37380;45.186;9.792;2024-02-23T02:53:05;99310.00;;;9.16;90.33
51297;BME280;37380;45.186;9.792;2024-02-23T02:55:32;99301.69;;;9.16;90.00
51297;BME280;37380;45.186;9.792;2024-02-23T02:58:00;99295.38;;;9.16;90.26
51297;BME280;37380;45.186;9.792;2024-02-23T03:00:27;99284.91;;;9.22;89.65
51297;BME280;37380;45.186;9.792;2024-02-23T03:02:54;99273.09;;;9.21;89.70
51297;BME280;37380;45.186;9.792;2024-02-23T03:05:20;99282.38;;;9.24;88.75
51297;BME280;37380;45.186;9.792;2024-02-23T03:07:48;99248.88;;;9.35;88.73
51297;BME280;37380;45.186;9.792;2024-02-23T03:10:15;99252.91;;;9.34;88.33
51297;BME280;37380;45.186;9.792;2024-02-23T03:12:42;99247.81;;;9.38;88.31
51297;BME280;37380;45.186;9.792;2024-02-23T03:15:09;99248.34;;;9.36;88.16
51297;BME280;37380;45.186;9.792;2024-02-23T03:17:37;99245.88;;;9.33;88.58
51297;BME280;37380;45.186;9.792;2024-02-23T03:20:04;99245.44;;;9.29;88.68
51297;BME280;37380;45.186;9.792;2024-02-23T03:22:38;99247.16;;;9.32;88.94
51297;BME280;37380;45.186;9.792;2024-02-23T03:25:05;99240.94;;;9.26;89.17
51297;BME280;37380;45.186;9.792;2024-02-23T03:27:36;99236.44;;;9.23;89.49
51297;BME280;37380;45.186;9.792;2024-02-23T03:30:04;99234.50;;;9.18;89.82
51297;BME280;37380;45.186;9.792;2024-02-23T03:32:31;99244.13;;;9.17;90.81
51297;BME280;37380;45.186;9.792;2024-02-23T03:35:04;99243.44;;;9.11;90.83
51297;BME280;37380;45.186;9.792;2024-02-23T03:37:32;99227.63;;;9.06;91.22
51297;BME280;37380;45.186;9.792;2024-02-23T03:39:58;99233.38;;;9.08;90.84
51297;BME280;37380;45.186;9.792;2024-02-23T03:42:26;99247.25;;;9.08;91.10
51297;BME280;37380;45.186;9.792;2024-02-23T03:44:55;99223.56;;;9.07;90.37
51297;BME280;37380;45.186;9.792;2024-02-23T03:47:22;99248.56;;;9.07;90.72
51297;BME280;37380;45.186;9.792;2024-02-23T03:49:49;99247.25;;;9.08;90.81
51297;BME280;37380;45.186;9.792;2024-02-23T03:52:16;99233.09;;;9.11;90.36
51297;BME280;37380;45.186;9.792;2024-02-23T03:54:42;99240.22;;;9.07;90.47
51297;BME280;37380;45.186;9.792;2024-02-23T03:57:09;99243.44;;;9.11;90.79
51297;BME280;37380;45.186;9.792;2024-02-23T03:59:37;99236.91;;;9.08;90.65
51297;BME280;37380;45.186;9.792;2024-02-23T04:02:04;99242.91;;;9.12;90.69
51297;BME280;37380;45.186;9.792;2024-02-23T04:04:31;99235.31;;;9.13;90.46
51297;BME280;37380;45.186;9.792;2024-02-23T04:06:58;99238.56;;;9.17;90.02
51297;BME280;37380;45.186;9.792;2024-02-23T04:09:27;99255.75;;;9.15;90.26
51297;BME280;37380;45.186;9.792;2024-02-23T04:11:54;99244.63;;;9.15;90.18
51297;BME280;37380;45.186;9.792;2024-02-23T04:14:22;99245.16;;;9.14;90.75
51297;BME280;37380;45.186;9.792;2024-02-23T04:16:49;99249.53;;;9.09;91.21
51297;BME280;37380;45.186;9.792;2024-02-23T04:19:16;99259.66;;;9.07;91.43
51297;BME280;37380;45.186;9.792;2024-02-23T04:21:43;99263.28;;;9.02;92.13
51297;BME280;37380;45.186;9.792;2024-02-23T04:24:10;99249.25;;;8.94;92.40
51297;BME280;37380;45.186;9.792;2024-02-23T04:26:36;99250.22;;;8.97;92.74
51297;BME280;37380;45.186;9.792;2024-02-23T04:29:03;99254.03;;;8.94;93.31
51297;BME280;37380;45.186;9.792;2024-02-23T04:31:30;99248.06;;;8.90;93.43
51297;BME280;37380;45.186;9.792;2024-02-23T04:33:57;99262.47;;;8.88;93.44
51297;BME280;37380;45.186;9.792;2024-02-23T04:36:24;99264.94;;;8.92;93.12
51297;BME280;37380;45.186;9.792;2024-02-23T04:38:51;99256.91;;;8.88;93.89
51297;BME280;37380;45.186;9.792;2024-02-23T04:41:21;99258.72;;;8.86;94.36
51297;BME280;37380;45.186;9.792;2024-02-23T04:43:49;99264.88;;;8.78;94.93
51297;BME280;37380;45.186;9.792;2024-02-23T04:46:16;99262.75;;;8.85;94.83
51297;BME280;37380;45.186;9.792;2024-02-23T04:48:43;99267.88;;;8.80;94.81
51297;BME280;37380;45.186;9.792;2024-02-23T04:51:10;99263.44;;;8.72;95.45
51297;BME280;37380;45.186;9.792;2024-02-23T04:53:37;99254.28;;;8.77;95.90
51297;BME280;37380;45.186;9.792;2024-02-23T04:56:05;99258.56;;;8.78;95.51
51297;BME280;37380;45.186;9.792;2024-02-23T04:58:32;99254.13;;;8.69;96.20
51297;BME280;37380;45.186;9.792;2024-02-23T05:00:59;99263.28;;;8.64;96.74
51297;BME280;37380;45.186;9.792;2024-02-23T05:03:26;99251.44;;;8.64;96.92
51297;BME280;37380;45.186;9.792;2024-02-23T05:05:53;99260.66;;;8.72;96.76
51297;BME280;37380;45.186;9.792;2024-02-23T05:08:21;99263.13;;;8.75;96.34
51297;BME280;37380;45.186;9.792;2024-02-23T05:10:48;99256.59;;;8.73;96.18
51297;BME280;37380;45.186;9.792;2024-02-23T05:13:15;99260.16;;;8.73;96.53
51297;BME280;37380;45.186;9.792;2024-02-23T05:15:42;99274.63;;;8.66;96.72
51297;BME280;37380;45.186;9.792;2024-02-23T05:18:09;99284.19;;;8.65;97.40
51297;BME280;37380;45.186;9.792;2024-02-23T05:20:36;99287.34;;;8.75;97.17
51297;BME280;37380;45.186;9.792;2024-02-23T05:23:04;99259.31;;;8.78;96.54
51297;BME280;37380;45.186;9.792;2024-02-23T05:25:31;99266.88;;;8.78;96.06
51297;BME280;37380;45.186;9.792;2024-02-23T05:27:59;99263.13;;;8.75;95.94
51297;BME280;37380;45.186;9.792;2024-02-23T05:30:26;99266.44;;;8.74;95.94
51297;BME280;37380;45.186;9.792;2024-02-23T05:32:58;99262.59;;;8.77;96.41
51297;BME280;37380;45.186;9.792;2024-02-23T05:35:25;99269.44;;;8.76;95.99
51297;BME280;37380;45.186;9.792;2024-02-23T05:37:53;99267.94;;;8.75;96.38
51297;BME280;37380;45.186;9.792;2024-02-23T05:40:20;99268.00;;;8.69;96.71
51297;BME280;37380;45.186;9.792;2024-02-23T05:42:47;99263.88;;;8.76;97.00
51297;BME280;37380;45.186;9.792;2024-02-23T05:45:14;99259.38;;;8.73;96.75
51297;BME280;37380;45.186;9.792;2024-02-23T05:47:42;99252.25;;;8.77;96.83
51297;BME280;37380;45.186;9.792;2024-02-23T05:50:14;99248.56;;;8.69;96.92
51297;BME280;37380;45.186;9.792;2024-02-23T05:52:40;99248.66;;;8.82;96.75
51297;BME280;37380;45.186;9.792;2024-02-23T05:55:08;99249.19;;;8.81;96.04
51297;BME280;37380;45.186;9.792;2024-02-23T05:57:35;99248.22;;;8.78;95.83
51297;BME280;37380;45.186;9.792;2024-02-23T06:00:03;99250.53;;;8.74;96.47
51297;BME280;37380;45.186;9.792;2024-02-23T06:02:37;99248.81;;;8.71;96.87
51297;BME280;37380;45.186;9.792;2024-02-23T06:05:05;99243.41;;;8.79;96.15
51297;BME280;37380;45.186;9.792;2024-02-23T06:07:34;99222.63;;;8.86;95.69
51297;BME280;37380;45.186;9.792;2024-02-23T06:10:01;99219.78;;;8.72;96.04
51297;BME280;37380;45.186;9.792;2024-02-23T06:12:28;99217.22;;;8.74;96.07
51297;BME280;37380;45.186;9.792;2024-02-23T06:14:56;99217.00;;;8.72;96.30
51297;BME280;37380;45.186;9.792;2024-02-23T06:17:24;99225.09;;;8.70;96.15
51297;BME280;37380;45.186;9.792;2024-02-23T06:19:52;99225.53;;;8.74;96.15
51297;BME280;37380;45.186;9.792;2024-02-23T06:22:20;99242.19;;;8.74;96.03
51297;BME280;37380;45.186;9.792;2024-02-23T06:24:51;99241.31;;;8.66;96.30
51297;BME280;37380;45.186;9.792;2024-02-23T06:27:18;99244.81;;;8.67;96.30
51297;BME280;37380;45.186;9.792;2024-02-23T06:29:45;99244.31;;;8.68;96.74
51297;BME280;37380;45.186;9.792;2024-02-23T06:32:12;99245.06;;;8.69;97.17
51297;BME280;37380;45.186;9.792;2024-02-23T06:34:39;99262.91;;;8.73;97.34
51297;BME280;37380;45.186;9.792;2024-02-23T06:37:06;99262.16;;;8.73;97.46
51297;BME280;37380;45.186;9.792;2024-02-23T06:39:33;99257.81;;;8.77;97.92
51297;BME280;37380;45.186;9.792;2024-02-23T06:42:00;99249.91;;;8.81;97.46
51297;BME280;37380;45.186;9.792;2024-02-23T06:44:40;99259.00;;;8.82;97.14
51297;BME280;37380;45.186;9.792;2024-02-23T06:48:04;99252.84;;;8.89;96.77
51297;BME280;37380;45.186;9.792;2024-02-23T06:50:31;99256.66;;;8.86;96.35
51297;BME280;37380;45.186;9.792;2024-02-23T06:52:58;99252.47;;;8.79;96.17
51297;BME280;37380;45.186;9.792;2024-02-23T06:55:25;99251.88;;;8.87;96.37
51297;BME280;37380;45.186;9.792;2024-02-23T06:57:52;99254.50;;;8.79;96.39
51297;BME280;37380;45.186;9.792;2024-02-23T07:00:23;99263.88;;;8.76;96.54
51297;BME280;37380;45.186;9.792;2024-02-23T07:02:50;99276.63;;;8.85;96.72
51297;BME280;37380;45.186;9.792;2024-02-23T07:05:18;99293.06;;;8.82;97.26
51297;BME280;37380;45.186;9.792;2024-02-23T07:07:45;99297.34;;;8.84;97.38
51297;BME280;37380;45.186;9.792;2024-02-23T07:10:13;99299.38;;;8.83;97.95
51297;BME280;37380;45.186;9.792;2024-02-23T07:12:40;99287.97;;;8.87;97.84
51297;BME280;37380;45.186;9.792;2024-02-23T07:15:08;99299.06;;;8.87;98.09
51297;BME280;37380;45.186;9.792;2024-02-23T07:17:35;99303.34;;;8.88;98.35
51297;BME280;37380;45.186;9.792;2024-02-23T07:20:02;99297.56;;;8.86;98.15
51297;BME280;37380;45.186;9.792;2024-02-23T07:22:33;99296.50;;;8.89;98.01
51297;BME280;37380;45.186;9.792;2024-02-23T07:25:00;99306.13;;;8.88;98.07
51297;BME280;37380;45.186;9.792;2024-02-23T07:27:30;99315.94;;;8.89;98.46
51297;BME280;37380;45.186;9.792;2024-02-23T07:29:57;99315.94;;;8.89;98.59
51297;BME280;37380;45.186;9.792;2024-02-23T07:32:24;99317.22;;;8.88;98.64
51297;BME280;37380;45.186;9.792;2024-02-23T07:34:52;99316.19;;;8.91;98.78
51297;BME280;37380;45.186;9.792;2024-02-23T07:37:20;99331.31;;;8.90;98.94
51297;BME280;37380;45.186;9.792;2024-02-23T07:39:47;99342.16;;;8.93;98.67
51297;BME280;37380;45.186;9.792;2024-02-23T07:42:14;99332.53;;;8.94;99.22
51297;BME280;37380;45.186;9.792;2024-02-23T07:44:45;99326.44;;;8.96;99.11
51297;BME280;37380;45.186;9.792;2024-02-23T07:47:12;99327.41;;;8.98;99.01
51297;BME280;37380;45.186;9.792;2024-02-23T07:49:39;99330.88;;;9.04;99.14
51297;BME280;37380;45.186;9.792;2024-02-23T07:52:09;99316.19;;;9.09;99.32
51297;BME280;37380;45.186;9.792;2024-02-23T07:54:36;99323.59;;;9.20;99.42
51297;BME280;37380;45.186;9.792;2024-02-23T07:57:03;99319.38;;;9.32;99.03
51297;BME280;37380;45.186;9.792;2024-02-23T07:59:31;99321.75;;;9.41;99.50
51297;BME280;37380;45.186;9.792;2024-02-23T08:02:00;99332.03;;;9.46;99.34
51297;BME280;37380;45.186;9.792;2024-02-23T08:04:27;99330.69;;;9.53;99.16
51297;BME280;37380;45.186;9.792;2024-02-23T08:06:54;99326.94;;;9.50;98.68
51297;BME280;37380;45.186;9.792;2024-02-23T08:09:21;99327.38;;;9.54;98.88
51297;BME280;37380;45.186;9.792;2024-02-23T08:11:49;99319.69;;;9.60;98.44
51297;BME280;37380;45.186;9.792;2024-02-23T08:14:16;99321.94;;;9.62;98.44
51297;BME280;37380;45.186;9.792;2024-02-23T08:16:43;99323.56;;;9.70;98.74
51297;BME280;37380;45.186;9.792;2024-02-23T08:19:10;99317.78;;;9.68;98.30
51297;BME280;37380;45.186;9.792;2024-02-23T08:21:38;99325.06;;;9.71;98.33
51297;BME280;37380;45.186;9.792;2024-02-23T08:24:06;99324.03;;;9.74;98.13
51297;BME280;37380;45.186;9.792;2024-02-23T08:26:34;99329.38;;;9.85;98.33
51297;BME280;37380;45.186;9.792;2024-02-23T08:29:01;99331.63;;;9.87;97.89
51297;BME280;37380;45.186;9.792;2024-02-23T08:31:28;99330.34;;;9.88;97.41
51297;BME280;37380;45.186;9.792;2024-02-23T08:33:55;99321.47;;;9.76;97.00
51297;BME280;37380;45.186;9.792;2024-02-23T08:36:22;99326.41;;;9.83;96.85
51297;BME280;37380;45.186;9.792;2024-02-23T08:38:49;99328.63;;;9.85;96.30
51297;BME280;37380;45.186;9.792;2024-02-23T08:41:16;99329.59;;;9.87;96.47
51297;BME280;37380;45.186;9.792;2024-02-23T08:43:43;99337.81;;;9.80;96.21
51297;BME280;37380;45.186;9.792;2024-02-23T08:46:10;99340.38;;;9.78;96.15
51297;BME280;37380;45.186;9.792;2024-02-23T08:48:37;99332.66;;;9.71;96.21
51297;BME280;37380;45.186;9.792;2024-02-23T08:51:04;99355.78;;;9.47;95.86
51297;BME280;37380;45.186;9.792;2024-02-23T08:53:32;99341.91;;;9.60;96.13
51297;BME280;37380;45.186;9.792;2024-02-23T08:55:59;99340.72;;;9.56;96.37
51297;BME280;37380;45.186;9.792;2024-02-23T08:58:27;99330.69;;;9.34;95.53
51297;BME280;37380;45.186;9.792;2024-02-23T09:00:54;99342.31;;;9.51;96.46
51297;BME280;37380;45.186;9.792;2024-02-23T09:03:21;99342.72;;;9.42;96.21
51297;BME280;37380;45.186;9.792;2024-02-23T09:05:49;99346.59;;;9.52;96.16
51297;BME280;37380;45.186;9.792;2024-02-23T09:08:17;99332.66;;;9.39;96.10
51297;BME280;37380;45.186;9.792;2024-02-23T09:10:44;99324.19;;;9.13;96.29
51297;BME280;37380;45.186;9.792;2024-02-23T09:13:11;99345.38;;;9.16;96.96
51297;BME280;37380;45.186;9.792;2024-02-23T09:15:38;99334.69;;;9.20;96.58
51297;BME280;37380;45.186;9.792;2024-02-23T09:18:05;99352.03;;;9.26;96.75
51297;BME280;37380;45.186;9.792;2024-02-23T09:20:32;99341.81;;;9.34;96.18
51297;BME280;37380;45.186;9.792;2024-02-23T09:22:59;99348.06;;;9.21;96.40
51297;BME280;37380;45.186;9.792;2024-02-23T09:25:26;99337.69;;;9.22;96.53
51297;BME280;37380;45.186;9.792;2024-02-23T09:27:58;99331.53;;;9.10;96.36
51297;BME280;37380;45.186;9.792;2024-02-23T09:30:27;99337.56;;;9.14;96.92
51297;BME280;37380;45.186;9.792;2024-02-23T09:32:54;99341.81;;;9.15;97.25
51297;BME280;37380;45.186;9.792;2024-02-23T09:35:21;99354.81;;;9.26;97.53
51297;BME280;37380;45.186;9.792;2024-02-23T09:37:48;99362.09;;;9.29;97.35
51297;BME280;37380;45.186;9.792;2024-02-23T09:40:15;99369.53;;;9.21;96.77
51297;BME280;37380;45.186;9.792;2024-02-23T09:42:43;99370.19;;;9.45;96.89
51297;BME280;37380;45.186;9.792;2024-02-23T09:45:15;99374.78;;;9.43;96.94
51297;BME280;37380;45.186;9.792;2024-02-23T09:47:44;99382.66;;;9.58;96.65
51297;BME280;37380;45.186;9.792;2024-02-23T09:50:11;99384.00;;;9.32;95.83
51297;BME280;37380;45.186;9.792;2024-02-23T09:52:40;99381.16;;;9.38;96.01
51297;BME280;37380;45.186;9.792;2024-02-23T09:55:07;99375.75;;;9.27;95.45
51297;BME280;37380;45.186;9.792;2024-02-23T09:57:34;99369.75;;;9.23;96.10
51297;BME280;37380;45.186;9.792;2024-02-23T10:00:02;99363.59;;;9.30;95.71
51297;BME280;37380;45.186;9.792;2024-02-23T10:02:39;99369.22;;;9.24;95.09
51297;BME280;37380;45.186;9.792;2024-02-23T10:05:07;99364.19;;;9.41;94.97
51297;BME280;37380;45.186;9.792;2024-02-23T10:07:34;99368.97;;;9.41;94.49
51297;BME280;37380;45.186;9.792;2024-02-23T10:10:02;99357.44;;;9.37;93.99
51297;BME280;37380;45.186;9.792;2024-02-23T10:12:30;99347.84;;;9.19;94.24
51297;BME280;37380;45.186;9.792;2024-02-23T10:15:00;99349.19;;;9.13;94.35
51297;BME280;37380;45.186;9.792;2024-02-23T10:17:31;99352.81;;;9.26;94.68
51297;BME280;37380;45.186;9.792;2024-02-23T10:20:02;99360.78;;;9.48;94.56
51297;BME280;37380;45.186;9.792;2024-02-23T10:22:31;99368.03;;;9.70;93.65
51297;BME280;37380;45.186;9.792;2024-02-23T10:24:59;99365.25;;;9.70;92.54
51297;BME280;37380;45.186;9.792;2024-02-23T10:27:26;99369.69;;;9.79;92.19
51297;BME280;37380;45.186;9.792;2024-02-23T10:29:54;99362.59;;;10.09;91.96
51297;BME280;37380;45.186;9.792;2024-02-23T10:32:23;99365.69;;;10.06;91.41
51297;BME280;37380;45.186;9.792;2024-02-23T10:34:50;99359.34;;;9.92;90.99
51297;BME280;37380;45.186;9.792;2024-02-23T10:37:21;99364.38;;;9.94;91.88
51297;BME280;37380;45.186;9.792;2024-02-23T10:39:51;99361.25;;;10.16;91.89
51297;BME280;37380;45.186;9.792;2024-02-23T10:42:23;99354.94;;;10.15;90.90
51297;BME280;37380;45.186;9.792;2024-02-23T10:44:54;99354.88;;;10.02;91.50
51297;BME280;37380;45.186;9.792;2024-02-23T10:47:22;99359.81;;;10.09;90.60
51297;BME280;37380;45.186;9.792;2024-02-23T10:49:50;99362.69;;;10.04;90.89
51297;BME280;37380;45.186;9.792;2024-02-23T10:52:17;99359.78;;;9.96;90.64
51297;BME280;37380;45.186;9.792;2024-02-23T10:54:46;99351.72;;;9.80;90.25
51297;BME280;37380;45.186;9.792;2024-02-23T10:57:14;99351.63;;;9.85;90.54
51297;BME280;37380;45.186;9.792;2024-02-23T10:59:48;99353.56;;;9.90;90.60
51297;BME280;37380;45.186;9.792;2024-02-23T11:02:18;99361.91;;;9.90;90.86
51297;BME280;37380;45.186;9.792;2024-02-23T11:04:48;99344.47;;;9.90;89.78
51297;BME280;37380;45.186;9.792;2024-02-23T11:07:19;99352.38;;;9.86;89.76
51297;BME280;37380;45.186;9.792;2024-02-23T11:10:00;99344.56;;;9.84;90.94
51297;BME280;37380;45.186;9.792;2024-02-23T11:12:30;99317.31;;;9.96;91.20
51297;BME280;37380;45.186;9.792;2024-02-23T11:15:00;99305.63;;;9.84;90.13
51297;BME280;37380;45.186;9.792;2024-02-23T11:17:32;99299.31;;;9.71;90.15
51297;BME280;37380;45.186;9.792;2024-02-23T11:20:03;99308.53;;;9.79;89.29
51297;BME280;37380;45.186;9.792;2024-02-23T11:22:33;99325.97;;;9.92;90.10
51297;BME280;37380;45.186;9.792;2024-02-23T11:25:08;99326.88;;;10.00;89.07
51297;BME280;37380;45.186;9.792;2024-02-23T11:27:38;99335.63;;;10.04;89.52
51297;BME280;37380;45.186;9.792;2024-02-23T11:30:09;99340.78;;;10.00;89.81
51297;BME280;37380;45.186;9.792;2024-02-23T11:32:40;99350.34;;;9.86;88.96
51297;BME280;37380;45.186;9.792;2024-02-23T11:35:11;99348.56;;;10.02;88.62
51297;BME280;37380;45.186;9.792;2024-02-23T11:37:51;99360.63;;;9.91;88.21
51297;BME280;37380;45.186;9.792;2024-02-23T11:40:23;99358.69;;;9.86;89.47
51297;BME280;37380;45.186;9.792;2024-02-23T11:42:51;99347.09;;;9.69;89.43
51297;BME280;37380;45.186;9.792;2024-02-23T11:45:18;99344.84;;;9.68;89.36
51297;BME280;37380;45.186;9.792;2024-02-23T11:47:45;99339.00;;;9.84;89.38
51297;BME280;37380;45.186;9.792;2024-02-23T11:50:13;99331.34;;;9.90;90.33
51297;BME280;37380;45.186;9.792;2024-02-23T11:52:41;99323.00;;;9.59;89.76
51297;BME280;37380;45.186;9.792;2024-02-23T11:55:08;99332.13;;;9.72;90.72
51297;BME280;37380;45.186;9.792;2024-02-23T11:57:36;99325.28;;;9.73;89.96
51297;BME280;37380;45.186;9.792;2024-02-23T12:00:14;99343.47;;;9.74;90.58
51297;BME280;37380;45.186;9.792;2024-02-23T12:02:44;99329.81;;;9.89;90.67
51297;BME280;37380;45.186;9.792;2024-02-23T12:05:16;99325.97;;;9.92;89.66
51297;BME280;37380;45.186;9.792;2024-02-23T12:07:43;99337.56;;;10.09;89.28
51297;BME280;37380;45.186;9.792;2024-02-23T12:10:14;99326.81;;;9.87;88.33
51297;BME280;37380;45.186;9.792;2024-02-23T12:12:41;99333.28;;;9.95;88.49
51297;BME280;37380;45.186;9.792;2024-02-23T12:15:08;99322.47;;;10.05;88.94
51297;BME280;37380;45.186;9.792;2024-02-23T12:17:36;99323.16;;;10.37;87.90
51297;BME280;37380;45.186;9.792;2024-02-23T12:20:04;99321.56;;;10.29;86.76
51297;BME280;37380;45.186;9.792;2024-02-23T12:22:34;99315.34;;;10.23;87.43
51297;BME280;37380;45.186;9.792;2024-02-23T12:25:01;99306.06;;;10.33;86.77
51297;BME280;37380;45.186;9.792;2024-02-23T12:27:30;99295.69;;;10.34;87.13
51297;BME280;37380;45.186;9.792;2024-02-23T12:29:57;99299.94;;;10.48;87.79
51297;BME280;37380;45.186;9.792;2024-02-23T12:33:06;99296.31;;;10.27;86.75
51297;BME280;37380;45.186;9.792;2024-02-23T12:35:34;99295.22;;;10.30;86.94
51297;BME280;37380;45.186;9.792;2024-02-23T12:38:03;99287.84;;;10.32;86.64
51297;BME280;37380;45.186;9.792;2024-02-23T12:40:29;99284.44;;;10.52;87.36
51297;BME280;37380;45.186;9.792;2024-02-23T12:42:57;99297.09;;;10.87;87.03
51297;BME280;37380;45.186;9.792;2024-02-23T12:45:24;99302.25;;;10.83;87.02
51297;BME280;37380;45.186;9.792;2024-02-23T12:47:52;99296.66;;;10.96;86.65
51297;BME280;37380;45.186;9.792;2024-02-23T12:50:19;99305.81;;;10.70;86.33
51297;BME280;37380;45.186;9.792;2024-02-23T12:52:46;99299.00;;;10.45;86.52
51297;BME280;37380;45.186;9.792;2024-02-23T12:55:14;99291.91;;;10.57;86.51
51297;BME280;37380;45.186;9.792;2024-02-23T12:57:41;99284.94;;;10.64;86.09
51297;BME280;37380;45.186;9.792;2024-02-23T13:00:08;99273.19;;;10.45;85.36
51297;BME280;37380;45.186;9.792;2024-02-23T13:02:35;99260.47;;;10.23;86.38
51297;BME280;37380;45.186;9.792;2024-02-23T13:05:03;99259.94;;;10.38;87.55
51297;BME280;37380;45.186;9.792;2024-02-23T13:07:30;99265.38;;;10.43;88.44
51297;BME280;37380;45.186;9.792;2024-02-23T13:09:57;99267.72;;;10.52;88.50
51297;BME280;37380;45.186;9.792;2024-02-23T13:12:25;99286.88;;;10.56;88.26
51297;BME280;37380;45.186;9.792;2024-02-23T13:14:53;99281.00;;;10.59;89.18